createdAt,value
2023-05-09T00:00:54.795Z,38.01
2023-05-09T00:01:54.719Z,37.96
2023-05-09T00:02:54.725Z,38.03
2023-05-09T00:03:54.730Z,38.16
2023-05-09T00:04:54.682Z,38.06
2023-05-09T00:05:54.664Z,37.99
2023-05-09T00:06:54.708Z,37.97
2023-05-09T00:07:54.660Z,37.92
2023-05-09T00:08:54.649Z,37.92
2023-05-09T00:09:54.649Z,37.95
2023-05-09T00:10:54.631Z,37.90
2023-05-09T00:11:54.617Z,37.98
2023-05-09T00:12:54.645Z,38.00
2023-05-09T00:13:54.961Z,37.90
2023-05-09T00:14:54.612Z,37.95
2023-05-09T00:15:54.590Z,37.94
2023-05-09T00:16:54.704Z,37.97
2023-05-09T00:17:54.676Z,37.93
2023-05-09T00:18:54.584Z,37.97
2023-05-09T00:19:54.570Z,37.99
2023-05-09T00:20:54.595Z,37.99
2023-05-09T00:21:54.553Z,37.92
2023-05-09T00:22:54.551Z,37.90
2023-05-09T00:23:54.559Z,37.99
2023-05-09T00:24:54.545Z,37.90
2023-05-09T00:25:54.556Z,37.91
2023-05-09T00:26:54.517Z,37.96
2023-05-09T00:27:54.514Z,37.92
2023-05-09T00:28:54.528Z,37.95
2023-05-09T00:29:54.482Z,37.97
2023-05-09T00:30:54.491Z,37.92
2023-05-09T00:31:54.503Z,37.86
2023-05-09T00:32:54.610Z,37.87
2023-05-09T00:33:54.494Z,37.90
2023-05-09T00:34:54.464Z,37.91
2023-05-09T00:35:54.447Z,37.93
2023-05-09T00:36:54.463Z,37.92
2023-05-09T00:37:54.452Z,37.99
2023-05-09T00:38:54.434Z,37.91
2023-05-09T00:39:54.424Z,37.96
2023-05-09T00:40:54.410Z,37.91
2023-05-09T00:41:54.440Z,37.86
2023-05-09T00:42:54.408Z,37.85
2023-05-09T00:43:54.417Z,37.89
2023-05-09T00:44:54.401Z,37.90
2023-05-09T00:45:54.380Z,37.87
2023-05-09T00:46:54.397Z,37.90
2023-05-09T00:47:54.388Z,37.98
2023-05-09T00:48:54.471Z,37.82
2023-05-09T00:49:54.345Z,37.90
2023-05-09T00:50:54.352Z,37.89
2023-05-09T00:51:54.344Z,37.90
2023-05-09T00:52:54.329Z,37.91
2023-05-09T00:53:54.335Z,37.89
2023-05-09T00:54:54.331Z,37.91
2023-05-09T00:55:54.320Z,37.91
2023-05-09T00:56:54.304Z,37.86
2023-05-09T00:57:54.301Z,37.90
2023-05-09T00:58:54.311Z,37.86
2023-05-09T00:59:54.317Z,37.87
2023-05-09T01:00:54.275Z,37.85
2023-05-09T01:01:54.300Z,37.87
2023-05-09T01:02:54.343Z,37.91
2023-05-09T01:03:54.315Z,37.86
2023-05-09T01:04:54.341Z,37.84
2023-05-09T01:05:54.233Z,37.87
2023-05-09T01:06:54.268Z,37.88
2023-05-09T01:07:54.240Z,37.87
2023-05-09T01:08:54.236Z,37.90
2023-05-09T01:09:54.237Z,37.87
2023-05-09T01:10:54.239Z,37.82
2023-05-09T01:11:54.221Z,37.87
2023-05-09T01:12:54.218Z,37.86
2023-05-09T01:13:54.194Z,37.81
2023-05-09T01:14:54.225Z,37.86
2023-05-09T01:15:54.204Z,37.84
2023-05-09T01:16:54.167Z,37.83
2023-05-09T01:17:54.190Z,37.92
2023-05-09T01:18:54.153Z,37.84
2023-05-09T01:19:54.141Z,37.88
2023-05-09T01:20:54.245Z,37.81
2023-05-09T01:21:54.205Z,37.86
2023-05-09T01:22:54.122Z,37.88
2023-05-09T01:23:54.149Z,37.81
2023-05-09T01:24:54.103Z,37.88
2023-05-09T01:25:54.097Z,37.80
2023-05-09T01:26:54.097Z,37.88
2023-05-09T01:27:54.084Z,37.84
2023-05-09T01:28:54.103Z,37.84
2023-05-09T01:29:54.104Z,37.87
2023-05-09T01:30:54.154Z,37.87
2023-05-09T01:31:54.061Z,37.83
2023-05-09T01:32:54.133Z,37.83
2023-05-09T01:33:54.056Z,37.78
2023-05-09T01:34:54.046Z,37.80
2023-05-09T01:35:54.037Z,37.79
2023-05-09T01:36:54.120Z,37.81
2023-05-09T01:37:54.026Z,37.86
2023-05-09T01:38:54.023Z,37.80
2023-05-09T01:39:54.008Z,37.78
2023-05-09T01:40:54.010Z,37.93
2023-05-09T01:41:54.015Z,37.86
2023-05-09T01:42:53.994Z,37.84
2023-05-09T01:43:54.043Z,37.87
2023-05-09T01:44:54.001Z,37.80
2023-05-09T01:45:54.013Z,37.76
2023-05-09T01:46:54.116Z,37.86
2023-05-09T01:47:54.112Z,37.81
2023-05-09T01:48:53.955Z,37.85
2023-05-09T01:49:53.966Z,37.80
2023-05-09T01:50:53.936Z,37.83
2023-05-09T01:51:53.947Z,37.96
2023-05-09T01:52:54.015Z,37.79
2023-05-09T01:53:53.920Z,37.81
2023-05-09T01:54:53.904Z,37.88
2023-05-09T01:55:53.918Z,37.89
2023-05-09T01:56:53.913Z,37.86
2023-05-09T01:57:53.900Z,37.79
2023-05-09T01:58:53.903Z,37.92
2023-05-09T01:59:53.866Z,37.81
2023-05-09T02:00:53.895Z,37.83
2023-05-09T02:01:53.919Z,37.80
2023-05-09T02:02:53.980Z,37.91
2023-05-09T02:03:53.862Z,37.81
2023-05-09T02:04:53.857Z,37.77
2023-05-09T02:05:53.878Z,37.75
2023-05-09T02:06:53.854Z,37.79
2023-05-09T02:07:53.843Z,37.79
2023-05-09T02:08:53.899Z,37.85
2023-05-09T02:09:53.812Z,37.79
2023-05-09T02:10:53.829Z,37.78
2023-05-09T02:11:53.809Z,37.84
2023-05-09T02:12:53.825Z,37.75
2023-05-09T02:13:53.782Z,37.86
2023-05-09T02:14:53.769Z,37.78
2023-05-09T02:15:53.784Z,37.83
2023-05-09T02:16:53.850Z,37.83
2023-05-09T02:17:53.826Z,37.83
2023-05-09T02:18:53.767Z,37.86
2023-05-09T02:19:53.755Z,37.80
2023-05-09T02:20:53.780Z,37.76
2023-05-09T02:21:53.750Z,37.84
2023-05-09T02:22:53.733Z,37.79
2023-05-09T02:23:53.729Z,37.80
2023-05-09T02:24:53.793Z,37.80
2023-05-09T02:25:53.713Z,37.78
2023-05-09T02:26:53.699Z,37.80
2023-05-09T02:27:53.703Z,37.79
2023-05-09T02:28:53.725Z,37.80
2023-05-09T02:29:53.731Z,37.80
2023-05-09T02:30:53.716Z,37.79
2023-05-09T02:31:53.813Z,37.77
2023-05-09T02:32:53.847Z,37.75
2023-05-09T02:33:53.750Z,37.79
2023-05-09T02:34:53.756Z,37.83
2023-05-09T02:35:53.761Z,37.79
2023-05-09T02:36:53.763Z,37.77
2023-05-09T02:37:53.763Z,37.74
2023-05-09T02:38:53.744Z,37.75
2023-05-09T02:39:53.787Z,37.76
2023-05-09T02:40:53.854Z,37.94
2023-05-09T02:41:53.788Z,37.77
2023-05-09T02:42:53.801Z,37.94
2023-05-09T02:43:53.805Z,37.79
2023-05-09T02:44:53.799Z,37.85
2023-05-09T02:45:53.813Z,37.76
2023-05-09T02:46:53.833Z,37.73
2023-05-09T02:47:53.860Z,37.78
2023-05-09T02:48:53.853Z,37.74
2023-05-09T02:49:53.848Z,37.81
2023-05-09T02:50:53.824Z,37.77
2023-05-09T02:51:53.876Z,37.81
2023-05-09T02:52:53.856Z,37.76
2023-05-09T02:53:53.865Z,37.80
2023-05-09T02:54:53.890Z,37.81
2023-05-09T02:55:53.886Z,37.76
2023-05-09T02:56:53.923Z,37.81
2023-05-09T02:58:02.145Z,37.73
2023-05-09T02:58:54.831Z,37.73
2023-05-09T02:59:53.814Z,37.80
2023-05-09T03:00:53.826Z,37.81
2023-05-09T03:01:53.832Z,37.76
2023-05-09T03:02:53.973Z,37.81
2023-05-09T03:03:53.823Z,37.76
2023-05-09T03:04:53.765Z,37.73
2023-05-09T03:05:53.822Z,37.74
2023-05-09T03:06:53.767Z,37.81
2023-05-09T03:07:53.761Z,37.76
2023-05-09T03:08:53.751Z,37.80
2023-05-09T03:09:53.737Z,37.74
2023-05-09T03:10:53.740Z,37.76
2023-05-09T03:11:53.743Z,37.77
2023-05-09T03:12:53.901Z,37.76
2023-05-09T03:13:53.732Z,37.81
2023-05-09T03:14:53.716Z,37.74
2023-05-09T03:15:53.722Z,37.76
2023-05-09T03:16:53.719Z,37.77
2023-05-09T03:17:53.709Z,37.74
2023-05-09T03:18:53.689Z,37.76
2023-05-09T03:19:53.692Z,37.74
2023-05-09T03:20:53.664Z,37.78
2023-05-09T03:21:53.659Z,37.74
2023-05-09T03:22:53.657Z,37.78
2023-05-09T03:23:53.656Z,37.82
2023-05-09T03:24:53.648Z,37.76
2023-05-09T03:25:53.630Z,37.80
2023-05-09T03:26:53.637Z,37.77
2023-05-09T03:27:53.647Z,37.74
2023-05-09T03:28:53.712Z,37.81
2023-05-09T03:29:53.620Z,37.77
2023-05-09T03:30:53.596Z,37.82
2023-05-09T03:31:53.691Z,37.78
2023-05-09T03:32:53.642Z,37.74
2023-05-09T03:33:53.591Z,37.75
2023-05-09T03:34:53.574Z,37.74
2023-05-09T03:35:53.580Z,37.74
2023-05-09T03:36:53.546Z,37.74
2023-05-09T03:37:53.610Z,37.72
2023-05-09T03:38:53.547Z,37.82
2023-05-09T03:39:53.574Z,37.78
2023-05-09T03:40:53.530Z,37.72
2023-05-09T03:41:53.522Z,37.74
2023-05-09T03:42:53.587Z,37.77
2023-05-09T03:43:53.517Z,37.72
2023-05-09T03:44:53.626Z,37.72
2023-05-09T03:45:53.505Z,37.71
2023-05-09T03:46:53.571Z,37.78
2023-05-09T03:47:53.546Z,37.73
2023-05-09T03:48:53.485Z,37.81
2023-05-09T03:49:53.552Z,37.72
2023-05-09T03:50:53.468Z,37.74
2023-05-09T03:51:53.478Z,37.71
2023-05-09T03:52:53.470Z,37.70
2023-05-09T03:53:53.458Z,37.75
2023-05-09T03:54:53.448Z,37.70
2023-05-09T03:55:53.450Z,37.75
2023-05-09T03:56:53.428Z,37.82
2023-05-09T03:57:53.431Z,37.78
2023-05-09T03:58:53.538Z,37.77
2023-05-09T03:59:53.447Z,37.74
2023-05-09T04:00:53.489Z,37.83
2023-05-09T04:01:53.421Z,37.76
2023-05-09T04:02:53.504Z,37.79
2023-05-09T04:03:53.438Z,37.74
2023-05-09T04:04:53.400Z,37.77
2023-05-09T04:05:53.371Z,37.71
2023-05-09T04:06:53.360Z,37.81
2023-05-09T04:07:53.388Z,37.77
2023-05-09T04:08:53.368Z,37.75
2023-05-09T04:09:53.357Z,37.71
2023-05-09T04:10:53.373Z,37.77
2023-05-09T04:11:53.333Z,37.78
2023-05-09T04:12:53.376Z,37.74
2023-05-09T04:13:53.322Z,37.76
2023-05-09T04:14:53.341Z,37.75
2023-05-09T04:15:53.329Z,37.74
2023-05-09T04:16:53.422Z,37.86
2023-05-09T04:17:53.347Z,37.84
2023-05-09T04:18:53.313Z,37.74
2023-05-09T04:19:53.334Z,37.65
2023-05-09T04:20:53.294Z,37.80
2023-05-09T04:21:53.277Z,37.83
2023-05-09T04:22:53.286Z,37.85
2023-05-09T04:23:53.285Z,37.79
2023-05-09T04:24:53.257Z,37.75
2023-05-09T04:25:53.248Z,37.75
2023-05-09T04:26:53.261Z,37.75
2023-05-09T04:27:53.297Z,37.70
2023-05-09T04:28:53.231Z,37.74
2023-05-09T04:29:53.230Z,37.78
2023-05-09T04:30:53.282Z,37.74
2023-05-09T04:31:53.381Z,37.75
2023-05-09T04:32:53.379Z,37.73
2023-05-09T04:33:53.232Z,37.84
2023-05-09T04:34:53.202Z,37.75
2023-05-09T04:35:53.184Z,37.71
2023-05-09T04:36:53.197Z,37.74
2023-05-09T04:37:53.186Z,37.80
2023-05-09T04:38:53.174Z,37.77
2023-05-09T04:39:53.195Z,37.82
2023-05-09T04:40:53.140Z,37.77
2023-05-09T04:41:53.162Z,37.76
2023-05-09T04:42:53.157Z,37.74
2023-05-09T04:43:53.219Z,37.69
2023-05-09T04:44:53.182Z,37.75
2023-05-09T04:45:53.193Z,37.79
2023-05-09T04:46:53.138Z,37.71
2023-05-09T04:47:53.212Z,37.74
2023-05-09T04:48:53.202Z,37.73
2023-05-09T04:49:53.134Z,37.69
2023-05-09T04:50:53.095Z,37.72
2023-05-09T04:51:53.103Z,37.73
2023-05-09T04:52:53.089Z,37.74
2023-05-09T04:53:53.100Z,37.78
2023-05-09T04:54:53.099Z,37.70
2023-05-09T04:55:53.053Z,37.67
2023-05-09T04:56:53.225Z,37.73
2023-05-09T04:57:53.041Z,37.66
2023-05-09T04:58:53.063Z,37.70
2023-05-09T04:59:53.059Z,37.73
2023-05-09T05:00:53.034Z,37.66
2023-05-09T05:01:53.037Z,37.70
2023-05-09T05:02:53.080Z,37.73
2023-05-09T05:03:52.998Z,37.68
2023-05-09T05:05:03.020Z,37.68
2023-05-09T05:05:54.078Z,37.71
2023-05-09T05:06:52.970Z,37.76
2023-05-09T05:07:52.977Z,37.76
2023-05-09T05:08:52.970Z,37.67
2023-05-09T05:09:53.002Z,37.68
2023-05-09T05:10:52.973Z,37.70
2023-05-09T05:11:59.880Z,37.71
2023-05-09T05:12:53.992Z,37.66
2023-05-09T05:13:52.949Z,37.66
2023-05-09T05:14:52.919Z,37.70
2023-05-09T05:15:52.984Z,37.70
2023-05-09T05:16:52.923Z,37.78
2023-05-09T05:17:52.980Z,37.71
2023-05-09T05:18:52.916Z,37.66
2023-05-09T05:19:52.897Z,37.67
2023-05-09T05:20:52.975Z,37.66
2023-05-09T05:21:52.894Z,37.63
2023-05-09T05:22:52.984Z,37.61
2023-05-09T05:23:52.882Z,37.71
2023-05-09T05:24:52.868Z,37.67
2023-05-09T05:25:52.902Z,37.71
2023-05-09T05:26:52.856Z,37.74
2023-05-09T05:27:52.968Z,37.71
2023-05-09T05:28:52.842Z,37.78
2023-05-09T05:29:52.939Z,37.86
2023-05-09T05:30:52.914Z,37.67
2023-05-09T05:31:52.938Z,37.59
2023-05-09T05:32:53.093Z,37.56
2023-05-09T05:33:52.834Z,37.60
2023-05-09T05:34:52.798Z,37.68
2023-05-09T05:35:52.826Z,38.21
2023-05-09T05:36:52.858Z,38.30
2023-05-09T05:37:52.775Z,38.49
2023-05-09T05:38:52.768Z,39.11
2023-05-09T05:39:52.758Z,39.07
2023-05-09T05:40:52.765Z,39.18
2023-05-09T05:41:52.875Z,39.47
2023-05-09T05:42:53.099Z,40.04
2023-05-09T05:43:54.354Z,41.14
2023-05-09T05:44:52.737Z,40.73
2023-05-09T05:45:52.752Z,40.64
2023-05-09T05:46:52.738Z,40.49
2023-05-09T05:47:53.170Z,40.71
2023-05-09T05:48:52.707Z,40.86
2023-05-09T05:49:52.688Z,41.09
2023-05-09T05:50:52.693Z,41.27
2023-05-09T05:51:52.827Z,41.41
2023-05-09T05:52:52.793Z,41.61
2023-05-09T05:53:52.670Z,41.68
2023-05-09T05:54:52.708Z,41.79
2023-05-09T05:55:52.726Z,41.87
2023-05-09T05:56:52.680Z,42.08
2023-05-09T05:57:52.709Z,42.23
2023-05-09T05:58:52.652Z,42.67
2023-05-09T05:59:52.627Z,42.73
2023-05-09T06:00:52.618Z,42.76
2023-05-09T06:01:52.692Z,42.95
2023-05-09T06:02:53.634Z,42.95
2023-05-09T06:03:52.760Z,43.31
2023-05-09T06:04:53.906Z,43.33
2023-05-09T06:05:52.611Z,43.39
2023-05-09T06:06:52.582Z,43.49
2023-05-09T06:07:52.620Z,43.73
2023-05-09T06:08:52.679Z,43.26
2023-05-09T06:09:52.612Z,42.67
2023-05-09T06:10:52.749Z,42.61
2023-05-09T06:11:52.561Z,42.49
2023-05-09T06:12:52.725Z,42.32
2023-05-09T06:13:52.610Z,42.25
2023-05-09T06:14:52.651Z,42.09
2023-05-09T06:15:52.533Z,42.13
2023-05-09T06:16:52.547Z,42.05
2023-05-09T06:17:52.698Z,42.03
2023-05-09T06:18:54.201Z,41.93
2023-05-09T06:19:52.501Z,41.61
2023-05-09T06:20:52.491Z,41.87
2023-05-09T06:21:52.560Z,41.75
2023-05-09T06:22:52.534Z,41.74
2023-05-09T06:24:06.664Z,41.72
2023-05-09T06:24:53.475Z,41.76
2023-05-09T06:25:52.447Z,41.69
2023-05-09T06:26:52.464Z,41.69
2023-05-09T06:27:52.509Z,41.73
2023-05-09T06:28:52.457Z,41.75
2023-05-09T06:29:52.428Z,41.73
2023-05-09T06:30:52.421Z,41.80
2023-05-09T06:31:52.542Z,42.13
2023-05-09T06:32:52.703Z,42.10
2023-05-09T06:33:52.476Z,41.91
2023-05-09T06:34:52.458Z,41.87
2023-05-09T06:35:52.397Z,41.89
2023-05-09T06:36:52.425Z,41.92
2023-05-09T06:37:52.643Z,41.82
2023-05-09T06:38:52.646Z,42.24
2023-05-09T06:39:52.369Z,42.14
2023-05-09T06:40:52.457Z,42.53
2023-05-09T06:41:52.362Z,42.43
2023-05-09T06:42:52.375Z,42.42
2023-05-09T06:43:52.372Z,42.48
2023-05-09T06:44:52.400Z,42.65
2023-05-09T06:45:52.349Z,42.67
2023-05-09T06:46:52.346Z,42.36
2023-05-09T06:47:52.441Z,42.24
2023-05-09T06:48:52.387Z,42.27
2023-05-09T06:49:52.307Z,42.33
2023-05-09T06:50:52.290Z,42.43
2023-05-09T06:51:52.363Z,42.31
2023-05-09T06:52:52.317Z,41.88
2023-05-09T06:53:52.334Z,41.89
2023-05-09T06:54:52.256Z,42.03
2023-05-09T06:55:52.434Z,41.55
2023-05-09T06:56:52.378Z,41.36
2023-05-09T06:57:52.251Z,41.42
2023-05-09T06:58:52.303Z,41.32
2023-05-09T06:59:52.234Z,41.25
2023-05-09T07:00:52.232Z,41.20
2023-05-09T07:01:52.297Z,41.01
2023-05-09T07:02:52.274Z,40.74
2023-05-09T07:03:52.622Z,40.65
2023-05-09T07:04:52.300Z,40.60
2023-05-09T07:05:52.198Z,40.71
2023-05-09T07:06:52.214Z,40.72
2023-05-09T07:07:52.189Z,40.81
2023-05-09T07:08:52.522Z,40.87
2023-05-09T07:09:55.278Z,41.09
2023-05-09T07:10:53.211Z,41.31
2023-05-09T07:11:52.217Z,41.34
2023-05-09T07:12:52.310Z,41.37
2023-05-09T07:13:52.189Z,41.59
2023-05-09T07:14:52.230Z,41.50
2023-05-09T07:15:52.210Z,41.59
2023-05-09T07:16:52.222Z,41.72
2023-05-09T07:17:52.286Z,41.89
2023-05-09T07:18:52.138Z,41.81
2023-05-09T07:19:52.097Z,41.82
2023-05-09T07:20:52.274Z,42.02
2023-05-09T07:21:52.129Z,41.91
2023-05-09T07:22:52.124Z,42.07
2023-05-09T07:23:52.292Z,42.08
2023-05-09T07:24:52.096Z,42.28
2023-05-09T07:25:52.078Z,42.22
2023-05-09T07:26:52.075Z,42.03
2023-05-09T07:27:52.102Z,42.14
2023-05-09T07:28:52.384Z,42.43
2023-05-09T07:29:52.056Z,42.20
2023-05-09T07:30:52.058Z,42.36
2023-05-09T07:31:52.093Z,42.32
2023-05-09T07:32:52.250Z,42.51
2023-05-09T07:33:52.054Z,42.27
2023-05-09T07:34:52.152Z,42.29
2023-05-09T07:35:52.040Z,42.12
2023-05-09T07:36:52.031Z,42.13
2023-05-09T07:37:52.008Z,42.33
2023-05-09T07:38:52.260Z,42.49
2023-05-09T07:39:52.092Z,42.31
2023-05-09T07:40:51.974Z,42.42
2023-05-09T07:41:52.017Z,42.14
2023-05-09T07:42:51.964Z,42.13
2023-05-09T07:43:51.975Z,41.96
2023-05-09T07:44:52.139Z,41.90
2023-05-09T07:45:52.171Z,41.95
2023-05-09T07:46:52.201Z,41.90
2023-05-09T07:47:52.296Z,41.73
2023-05-09T07:48:52.332Z,41.28
2023-05-09T07:49:52.380Z,41.60
2023-05-09T07:50:52.408Z,41.56
2023-05-09T07:51:52.481Z,41.66
2023-05-09T07:52:52.590Z,41.69
2023-05-09T07:53:52.643Z,41.69
2023-05-09T07:54:52.758Z,41.64
2023-05-09T07:55:52.726Z,41.64
2023-05-09T07:56:52.850Z,41.72
2023-05-09T07:57:52.850Z,42.13
2023-05-09T07:58:55.516Z,42.02
2023-05-09T07:59:53.157Z,42.08
2023-05-09T08:00:53.000Z,41.50
2023-05-09T08:01:52.948Z,41.77
2023-05-09T08:02:53.099Z,42.02
2023-05-09T08:03:53.024Z,42.42
2023-05-09T08:04:52.885Z,42.26
2023-05-09T08:05:52.912Z,42.13
2023-05-09T08:06:52.862Z,42.56
2023-05-09T08:07:52.885Z,42.78
2023-05-09T08:08:52.957Z,42.37
2023-05-09T08:09:52.889Z,42.24
2023-05-09T08:10:52.869Z,42.04
2023-05-09T08:11:52.862Z,42.00
2023-05-09T08:12:52.919Z,42.11
2023-05-09T08:13:52.861Z,42.08
2023-05-09T08:14:52.843Z,41.93
2023-05-09T08:15:52.855Z,41.77
2023-05-09T08:16:52.902Z,41.74
2023-05-09T08:17:52.846Z,41.95
2023-05-09T08:18:52.940Z,42.07
2023-05-09T08:19:52.791Z,42.43
2023-05-09T08:20:52.811Z,41.91
2023-05-09T08:21:52.771Z,41.73
2023-05-09T08:22:52.793Z,41.46
2023-05-09T08:23:53.194Z,41.45
2023-05-09T08:24:52.819Z,40.95
2023-05-09T08:25:52.774Z,40.48
2023-05-09T08:26:52.739Z,40.58
2023-05-09T08:27:53.174Z,40.27
2023-05-09T08:28:53.156Z,40.08
2023-05-09T08:29:52.738Z,39.91
2023-05-09T08:30:52.764Z,39.75
2023-05-09T08:31:52.889Z,39.65
2023-05-09T08:32:52.951Z,39.63
2023-05-09T08:33:52.739Z,39.60
2023-05-09T08:34:52.783Z,39.56
2023-05-09T08:35:52.686Z,39.74
2023-05-09T08:36:52.701Z,39.74
2023-05-09T08:37:52.716Z,39.87
2023-05-09T08:38:53.163Z,39.78
2023-05-09T08:39:53.185Z,39.56
2023-05-09T08:40:52.751Z,39.81
2023-05-09T08:41:52.822Z,39.90
2023-05-09T08:42:52.964Z,40.18
2023-05-09T08:43:52.974Z,40.39
2023-05-09T08:44:52.958Z,40.50
2023-05-09T08:45:52.998Z,40.61
2023-05-09T08:46:53.085Z,40.57
2023-05-09T08:47:53.116Z,40.44
2023-05-09T08:48:53.223Z,40.64
2023-05-09T08:49:53.650Z,40.79
2023-05-09T08:50:53.232Z,40.47
2023-05-09T08:51:53.304Z,40.59
2023-05-09T08:52:53.315Z,40.59
2023-05-09T08:53:53.662Z,40.71
2023-05-09T08:54:53.437Z,41.10
2023-05-09T08:55:53.425Z,41.09
2023-05-09T08:56:53.484Z,41.21
2023-05-09T08:57:53.511Z,40.87
2023-05-09T08:58:53.605Z,41.06
2023-05-09T08:59:53.572Z,41.39
2023-05-09T09:00:53.609Z,41.58
2023-05-09T09:01:53.725Z,41.84
2023-05-09T09:02:53.743Z,41.44
2023-05-09T09:03:53.737Z,41.78
2023-05-09T09:04:53.870Z,41.66
2023-05-09T09:05:53.918Z,41.78
2023-05-09T09:06:53.816Z,42.10
2023-05-09T09:07:53.853Z,41.98
2023-05-09T09:08:53.913Z,41.97
2023-05-09T09:09:53.891Z,41.95
2023-05-09T09:10:54.783Z,41.85
2023-05-09T09:11:53.970Z,41.36
2023-05-09T09:12:54.064Z,41.19
2023-05-09T09:13:54.037Z,40.85
2023-05-09T09:14:54.021Z,40.93
2023-05-09T09:15:54.088Z,40.94
2023-05-09T09:16:54.119Z,40.69
2023-05-09T09:17:54.112Z,40.48
2023-05-09T09:18:54.161Z,40.30
2023-05-09T09:19:54.146Z,40.07
2023-05-09T09:20:54.307Z,40.09
2023-05-09T09:21:54.223Z,40.02
2023-05-09T09:22:54.221Z,39.92
2023-05-09T09:23:54.392Z,39.80
2023-05-09T09:24:54.281Z,39.85
2023-05-09T09:25:54.358Z,39.81
2023-05-09T09:26:54.409Z,39.72
2023-05-09T09:27:54.356Z,39.57
2023-05-09T09:28:54.624Z,39.31
2023-05-09T09:29:54.419Z,39.17
2023-05-09T09:30:54.437Z,39.18
2023-05-09T09:31:54.510Z,39.09
2023-05-09T09:32:54.604Z,38.98
2023-05-09T09:33:54.531Z,38.91
2023-05-09T09:34:54.565Z,38.98
2023-05-09T09:35:54.616Z,38.95
2023-05-09T09:36:54.801Z,39.15
2023-05-09T09:37:54.670Z,39.37
2023-05-09T09:38:54.746Z,39.43
2023-05-09T09:39:54.684Z,39.46
2023-05-09T09:40:54.712Z,39.86
2023-05-09T09:41:54.762Z,39.88
2023-05-09T09:42:54.800Z,40.15
2023-05-09T09:43:55.948Z,40.16
2023-05-09T09:44:55.002Z,39.65
2023-05-09T09:45:55.034Z,40.17
2023-05-09T09:46:55.055Z,40.44
2023-05-09T09:47:55.139Z,40.60
2023-05-09T09:48:55.064Z,40.68
2023-05-09T09:49:55.090Z,40.68
2023-05-09T09:50:55.137Z,40.91
2023-05-09T09:51:55.199Z,40.64
2023-05-09T09:52:55.337Z,39.88
2023-05-09T09:53:55.233Z,40.32
2023-05-09T09:54:55.223Z,40.40
2023-05-09T09:55:55.255Z,40.54
2023-05-09T09:56:55.452Z,40.29
2023-05-09T09:57:55.335Z,40.30
2023-05-09T09:58:55.373Z,40.29
2023-05-09T09:59:55.321Z,40.20
2023-05-09T10:00:55.374Z,39.97
2023-05-09T10:01:55.355Z,40.01
2023-05-09T10:02:55.426Z,40.77
2023-05-09T10:03:55.454Z,40.81
2023-05-09T10:04:55.501Z,40.33
2023-05-09T10:05:55.556Z,41.28
2023-05-09T10:06:55.531Z,39.56
2023-05-09T10:07:55.524Z,37.80
2023-05-09T10:08:55.669Z,37.47
2023-05-09T10:09:55.630Z,37.29
2023-05-09T10:10:55.648Z,37.18
2023-05-09T10:11:55.684Z,37.64
2023-05-09T10:12:55.759Z,37.92
2023-05-09T10:13:55.729Z,37.96
2023-05-09T10:14:56.031Z,37.82
2023-05-09T10:15:56.023Z,37.42
2023-05-09T10:16:55.989Z,37.33
2023-05-09T10:17:56.051Z,37.31
2023-05-09T10:18:55.972Z,37.28
2023-05-09T10:19:55.961Z,37.41
2023-05-09T10:20:55.980Z,37.07
2023-05-09T10:21:56.032Z,36.85
2023-05-09T10:22:56.232Z,37.01
2023-05-09T10:23:56.101Z,37.16
2023-05-09T10:24:57.693Z,36.84
2023-05-09T10:25:56.211Z,36.71
2023-05-09T10:26:56.288Z,36.76
2023-05-09T10:27:56.281Z,36.64
2023-05-09T10:28:56.381Z,36.58
2023-05-09T10:29:56.388Z,36.43
2023-05-09T10:30:56.437Z,36.65
2023-05-09T10:31:56.545Z,36.45
2023-05-09T10:32:56.520Z,36.25
2023-05-09T10:33:56.650Z,36.04
2023-05-09T10:34:56.633Z,35.93
2023-05-09T10:35:56.641Z,35.77
2023-05-09T10:36:56.689Z,35.82
2023-05-09T10:37:56.756Z,35.95
2023-05-09T10:38:56.791Z,36.15
2023-05-09T10:39:56.851Z,35.71
2023-05-09T10:40:56.972Z,35.89
2023-05-09T10:41:56.933Z,35.99
2023-05-09T10:42:56.987Z,35.79
2023-05-09T10:43:57.055Z,36.10
2023-05-09T10:44:57.099Z,36.02
2023-05-09T10:45:57.226Z,35.95
2023-05-09T10:46:57.254Z,36.10
2023-05-09T10:47:57.281Z,35.83
2023-05-09T10:48:57.274Z,35.68
2023-05-09T10:49:57.405Z,35.26
2023-05-09T10:50:57.416Z,35.39
2023-05-09T10:51:57.454Z,35.68
2023-05-09T10:52:57.587Z,36.07
2023-05-09T10:53:57.593Z,36.63
2023-05-09T10:54:57.665Z,37.13
2023-05-09T10:55:57.685Z,37.41
2023-05-09T10:56:57.919Z,37.65
2023-05-09T10:57:57.838Z,38.02
2023-05-09T10:58:57.861Z,38.40
2023-05-09T10:59:58.092Z,38.91
2023-05-09T11:00:58.063Z,38.94
2023-05-09T11:01:58.134Z,39.28
2023-05-09T11:02:58.102Z,39.37
2023-05-09T11:03:58.149Z,39.55
2023-05-09T11:04:58.703Z,39.56
2023-05-09T11:05:58.221Z,39.47
2023-05-09T11:06:58.265Z,39.39
2023-05-09T11:07:58.222Z,39.56
2023-05-09T11:08:58.287Z,39.63
2023-05-09T11:09:58.320Z,39.65
2023-05-09T11:10:58.423Z,39.81
2023-05-09T11:11:58.431Z,39.51
2023-05-09T11:12:58.653Z,39.53
2023-05-09T11:13:58.501Z,39.03
2023-05-09T11:14:58.483Z,36.32
2023-05-09T11:15:58.587Z,35.81
2023-05-09T11:16:58.549Z,35.62
2023-05-09T11:17:58.634Z,34.61
2023-05-09T11:18:58.688Z,33.56
2023-05-09T11:19:58.719Z,33.35
2023-05-09T11:20:58.828Z,33.10
2023-05-09T11:21:58.828Z,32.82
2023-05-09T11:22:58.907Z,32.86
2023-05-09T11:23:58.904Z,32.61
2023-05-09T11:24:58.968Z,32.20
2023-05-09T11:25:59.007Z,33.07
2023-05-09T11:26:59.051Z,32.95
2023-05-09T11:27:59.112Z,32.95
2023-05-09T11:28:59.264Z,32.61
2023-05-09T11:29:59.241Z,32.56
2023-05-09T11:30:59.261Z,32.53
2023-05-09T11:31:59.380Z,32.37
2023-05-09T11:32:59.388Z,32.72
2023-05-09T11:33:59.423Z,32.42
2023-05-09T11:34:59.518Z,32.87
2023-05-09T11:35:59.536Z,33.19
2023-05-09T11:36:59.636Z,33.30
2023-05-09T11:37:59.646Z,33.39
2023-05-09T11:38:59.878Z,33.67
2023-05-09T11:39:59.767Z,33.77
2023-05-09T11:40:59.923Z,33.74
2023-05-09T11:41:59.948Z,33.75
2023-05-09T11:42:59.924Z,33.81
2023-05-09T11:43:59.978Z,33.80
2023-05-09T11:45:00.138Z,33.90
2023-05-09T11:46:00.178Z,33.77
2023-05-09T11:47:00.152Z,33.61
2023-05-09T11:48:00.224Z,33.54
2023-05-09T11:49:00.227Z,33.54
2023-05-09T11:50:00.317Z,33.45
2023-05-09T11:51:00.326Z,33.57
2023-05-09T11:52:00.480Z,33.48
2023-05-09T11:53:00.473Z,33.53
2023-05-09T11:54:00.528Z,33.53
2023-05-09T11:55:00.570Z,33.69
2023-05-09T11:56:00.624Z,33.63
2023-05-09T11:57:00.656Z,33.53
2023-05-09T11:58:00.690Z,33.74
2023-05-09T11:59:00.780Z,33.43
2023-05-09T12:00:00.893Z,33.58
2023-05-09T12:01:00.950Z,33.57
2023-05-09T12:02:00.975Z,33.48
2023-05-09T12:03:01.140Z,33.27
2023-05-09T12:04:01.089Z,33.31
2023-05-09T12:05:01.111Z,33.34
2023-05-09T12:06:01.142Z,33.51
2023-05-09T12:07:01.180Z,33.38
2023-05-09T12:08:01.254Z,33.47
2023-05-09T12:09:01.355Z,33.33
2023-05-09T12:10:01.361Z,33.30
2023-05-09T12:11:01.407Z,33.33
2023-05-09T12:12:01.491Z,33.34
2023-05-09T12:13:01.507Z,33.29
2023-05-09T12:14:01.568Z,33.48
2023-05-09T12:15:01.729Z,33.34
2023-05-09T12:16:01.697Z,33.18
2023-05-09T12:17:01.852Z,32.99
2023-05-09T12:18:01.815Z,32.99
2023-05-09T12:19:01.811Z,33.05
2023-05-09T12:20:01.849Z,32.85
2023-05-09T12:21:01.901Z,33.10
2023-05-09T12:22:02.026Z,33.03
2023-05-09T12:23:02.009Z,33.27
2023-05-09T12:24:02.142Z,33.64
2023-05-09T12:25:02.143Z,33.87
2023-05-09T12:26:02.156Z,33.75
2023-05-09T12:27:02.237Z,33.74
2023-05-09T12:28:02.279Z,33.75
2023-05-09T12:29:02.296Z,33.76
2023-05-09T12:30:02.363Z,33.81
2023-05-09T12:31:02.385Z,33.98
2023-05-09T12:32:02.463Z,33.94
2023-05-09T12:33:02.596Z,34.08
2023-05-09T12:34:02.501Z,33.96
2023-05-09T12:35:02.524Z,33.88
2023-05-09T12:36:02.764Z,33.98
2023-05-09T12:37:02.680Z,33.99
2023-05-09T12:38:02.679Z,33.72
2023-05-09T12:39:02.690Z,33.54
2023-05-09T12:40:02.775Z,33.60
2023-05-09T12:41:03.830Z,33.62
2023-05-09T12:42:02.993Z,33.50
2023-05-09T12:43:02.829Z,33.36
2023-05-09T12:44:02.851Z,32.98
2023-05-09T12:45:02.904Z,32.81
2023-05-09T12:46:02.964Z,32.33
2023-05-09T12:47:03.021Z,32.36
2023-05-09T12:48:03.020Z,32.04
2023-05-09T12:49:03.110Z,32.03
2023-05-09T12:50:03.113Z,32.18
2023-05-09T12:51:03.059Z,32.35
2023-05-09T12:52:05.012Z,32.34
2023-05-09T12:53:03.770Z,32.31